Stevens Point, Wisconsin
Current Conditions -  °F | °C
As of 12:35 AM on Friday 31 Oct 2014 (Local Time) from KSTE Reporting Station
Moderate Rain Moderate Rain  
Wind Chill: 24°   Ceiling: 2300
Heat Index: 33°   Visibility: 10mi
Dew Point: 29°   Wind: 12mph
Humidity: 85%   Direction: 300°WNW
Pressure: 30.1"   Gusts: 16mph
Location:  44.52°N, 89.57°W
Report Text: KSTE 310535Z AUTO 30010G14KT 10SM RA BKN023 BKN030 OVC050 01/M02 A3010 RMK AO2 T00061017
Loading
Personal Weather Stations






























Interactive Weather Map New forecast layout! Learn more

10-Day Weather Forecast

Advertisements
Track Severe Weather on mobile